createdAt,value
2017-06-11T00:00:36.008Z,63.6
2017-06-11T00:01:16.904Z,63.6
2017-06-11T00:01:57.797Z,62.93
2017-06-11T00:02:38.702Z,63.12
2017-06-11T00:03:19.593Z,64.28
2017-06-11T00:04:00.513Z,63.79
2017-06-11T00:04:41.406Z,63.51
2017-06-11T00:05:22.302Z,63.02
2017-06-11T00:06:03.199Z,62.64
2017-06-11T00:06:44.105Z,63.02
2017-06-11T00:07:25.028Z,63.02
2017-06-11T00:08:05.929Z,62.64
2017-06-11T00:08:46.824Z,63.02
2017-06-11T00:09:27.718Z,63.02
2017-06-11T00:10:08.627Z,63.12
2017-06-11T00:10:49.519Z,62.74
2017-06-11T00:11:30.420Z,63.02
2017-06-11T00:12:11.329Z,62.74
2017-06-11T00:12:52.242Z,63.6
2017-06-11T00:13:33.149Z,63.41
2017-06-11T00:14:14.069Z,64.56
2017-06-11T00:14:54.956Z,65.91
2017-06-11T00:15:35.852Z,65.91
2017-06-11T00:16:16.751Z,66.2
2017-06-11T00:16:57.651Z,66.58
2017-06-11T00:17:38.538Z,66.17
2017-06-11T00:18:19.439Z,66.07
2017-06-11T00:19:00.335Z,65.33
2017-06-11T00:19:41.226Z,64.76
2017-06-11T00:20:22.126Z,64.86
2017-06-11T00:21:03.022Z,64.66
2017-06-11T00:21:43.928Z,64.08
2017-06-11T00:22:24.827Z,64.28
2017-06-11T00:23:05.731Z,65.91
2017-06-11T00:23:46.634Z,66.39
2017-06-11T00:24:27.531Z,66.39
2017-06-11T00:25:08.423Z,66.3
2017-06-11T00:25:49.311Z,66.58
2017-06-11T00:26:30.209Z,66.49
2017-06-11T00:27:11.116Z,66.58
2017-06-11T00:27:52.030Z,66.49
2017-06-11T00:28:32.923Z,66.58
2017-06-11T00:29:13.816Z,65.72
2017-06-11T00:29:54.705Z,66.46
2017-06-11T00:30:35.606Z,67.03
2017-06-11T00:31:16.502Z,67.61
2017-06-11T00:31:57.412Z,66.65
2017-06-11T00:32:38.297Z,66.46
2017-06-11T00:33:19.180Z,66.49
2017-06-11T00:34:00.073Z,66.36
2017-06-11T00:34:40.974Z,66.46
2017-06-11T00:35:21.858Z,66.36
2017-06-11T00:36:02.762Z,65.97
2017-06-11T00:36:43.652Z,65.88
2017-06-11T00:37:24.546Z,66.17
2017-06-11T00:38:05.457Z,66.46
2017-06-11T00:38:46.345Z,66.27
2017-06-11T00:39:27.257Z,65.78
2017-06-11T00:40:08.136Z,66.36
2017-06-11T00:40:49.061Z,66.27
2017-06-11T00:41:29.952Z,66.65
2017-06-11T00:42:10.839Z,66.46
2017-06-11T00:42:51.755Z,65.97
2017-06-11T00:43:32.651Z,65.88
2017-06-11T00:44:13.552Z,66.46
2017-06-11T00:44:54.441Z,67.8
2017-06-11T00:45:35.346Z,67.22
2017-06-11T00:46:16.246Z,67.9
2017-06-11T00:46:57.133Z,68.29
2017-06-11T00:47:38.029Z,67.71
2017-06-11T00:48:18.925Z,68.67
2017-06-11T00:48:59.814Z,68.57
2017-06-11T00:49:40.720Z,68.38
2017-06-11T00:50:21.623Z,67.42
2017-06-11T00:51:02.503Z,67.51
2017-06-11T00:51:43.401Z,68.63
2017-06-11T00:52:24.296Z,67.48
2017-06-11T00:53:05.196Z,67.58
2017-06-11T00:53:46.097Z,68.63
2017-06-11T00:54:26.990Z,67.58
2017-06-11T00:55:07.908Z,67.77
2017-06-11T00:55:48.793Z,67.68
2017-06-11T00:56:29.668Z,68.25
2017-06-11T00:57:10.566Z,68.73
2017-06-11T00:57:51.460Z,68.92
2017-06-11T00:58:32.350Z,68.92
2017-06-11T00:59:13.257Z,68.83
2017-06-11T00:59:54.149Z,67.77
2017-06-11T01:00:35.035Z,67.1
2017-06-11T01:01:15.935Z,67.1
2017-06-11T01:01:56.830Z,67.48
2017-06-11T01:02:37.722Z,68.54
2017-06-11T01:03:18.623Z,68.83
2017-06-11T01:03:59.539Z,68.73
2017-06-11T01:04:40.416Z,68.54
2017-06-11T01:05:21.310Z,68.44
2017-06-11T01:06:02.199Z,68.63
2017-06-11T01:06:43.104Z,68.35
2017-06-11T01:07:23.992Z,68.35
2017-06-11T01:08:04.888Z,67.96
2017-06-11T01:08:45.814Z,67.48
2017-06-11T01:09:26.677Z,67.77
2017-06-11T01:10:07.569Z,67.58
2017-06-11T01:10:48.473Z,68.35
2017-06-11T01:11:29.371Z,68.35
2017-06-11T01:12:10.284Z,68.15
2017-06-11T01:12:51.171Z,67.86
2017-06-11T01:13:32.066Z,68.35
2017-06-11T01:14:12.964Z,68.41
2017-06-11T01:14:53.857Z,68.44
2017-06-11T01:15:34.761Z,69.02
2017-06-11T01:16:15.654Z,68.79
2017-06-11T01:16:56.537Z,68.63
2017-06-11T01:17:37.442Z,69.21
2017-06-11T01:18:18.328Z,69.18
2017-06-11T01:18:59.207Z,69.18
2017-06-11T01:19:40.111Z,69.37
2017-06-11T01:20:21.002Z,69.46
2017-06-11T01:21:01.874Z,70.07
2017-06-11T01:21:42.774Z,70.81
2017-06-11T01:22:23.682Z,70.37
2017-06-11T01:23:04.567Z,70.46
2017-06-11T01:23:45.464Z,69.98
2017-06-11T01:24:26.355Z,70.17
2017-06-11T01:25:07.242Z,70.94
2017-06-11T01:25:48.158Z,71.33
2017-06-11T01:26:29.034Z,70.56
2017-06-11T01:27:09.915Z,71.23
2017-06-11T01:27:50.802Z,71.23
2017-06-11T01:28:31.707Z,71.33
2017-06-11T01:29:12.602Z,70.07
2017-06-11T01:29:53.515Z,70.07
2017-06-11T01:30:34.390Z,70.07
2017-06-11T01:31:15.269Z,69.6
2017-06-11T01:31:56.169Z,71.42
2017-06-11T01:32:37.073Z,70.56
2017-06-11T01:33:17.978Z,69.69
2017-06-11T01:33:58.879Z,69.31
2017-06-11T01:34:39.757Z,69.02
2017-06-11T01:35:20.654Z,69.4
2017-06-11T01:36:01.554Z,70.27
2017-06-11T01:37:55.163Z,70.17
2017-06-11T01:38:36.051Z,70.65
2017-06-11T01:39:16.949Z,69.89
2017-06-11T01:39:57.853Z,69.98
2017-06-11T01:40:38.753Z,69.98
2017-06-11T01:41:19.643Z,69.69
2017-06-11T01:42:00.538Z,69.69
2017-06-11T01:42:41.433Z,69.4
2017-06-11T01:43:22.317Z,69.98
2017-06-11T01:44:03.212Z,69.89
2017-06-11T01:44:44.107Z,69.89
2017-06-11T01:45:25.016Z,69.89
2017-06-11T01:46:05.918Z,69.6
2017-06-11T01:46:46.794Z,69.98
2017-06-11T01:47:27.662Z,69.4
2017-06-11T01:48:08.559Z,69.4
2017-06-11T01:48:49.452Z,69.89
2017-06-11T01:49:30.326Z,69.89
2017-06-11T01:50:11.207Z,69.89
2017-06-11T01:50:52.096Z,69.89
2017-06-11T01:51:32.987Z,69.69
2017-06-11T01:52:13.883Z,69.69
2017-06-11T01:52:54.777Z,69.89
2017-06-11T01:53:35.674Z,69.69
2017-06-11T01:54:16.551Z,69.69
2017-06-11T01:54:57.457Z,69.89
2017-06-11T01:55:38.350Z,70.07
2017-06-11T01:56:19.238Z,70.37
2017-06-11T01:57:00.140Z,70.17
2017-06-11T01:57:41.047Z,70.37
2017-06-11T01:58:21.972Z,70.46
2017-06-11T01:59:02.851Z,71.42
2017-06-11T01:59:43.747Z,72.67
2017-06-11T02:00:24.639Z,73.25
2017-06-11T02:01:05.519Z,72
2017-06-11T02:01:46.391Z,71.33
2017-06-11T02:02:27.277Z,71.23
2017-06-11T02:03:08.196Z,71.33
2017-06-11T02:03:49.086Z,70.94
2017-06-11T02:04:29.998Z,72.19
2017-06-11T02:05:10.873Z,72.58
2017-06-11T02:05:51.753Z,72.64
2017-06-11T02:06:32.657Z,72.06
2017-06-11T02:07:13.542Z,72.34
2017-06-11T02:07:54.418Z,71.91
2017-06-11T02:08:35.356Z,73.6
2017-06-11T02:09:16.218Z,74.27
2017-06-11T02:09:57.110Z,73.6
2017-06-11T02:10:38.008Z,72.92
2017-06-11T02:11:18.914Z,72.83
2017-06-11T02:11:59.799Z,72.06
2017-06-11T02:12:40.709Z,71.91
2017-06-11T02:13:21.600Z,71.96
2017-06-11T02:14:02.508Z,74.46
2017-06-11T02:14:43.396Z,73.88
2017-06-11T02:15:24.272Z,73.02
2017-06-11T02:16:05.158Z,72.64
2017-06-11T02:16:46.065Z,71.96
2017-06-11T02:17:26.939Z,73.69
2017-06-11T02:18:07.870Z,73.31
2017-06-11T02:18:48.753Z,72.83
2017-06-11T02:19:29.640Z,73.21
2017-06-11T02:20:10.561Z,74.27
2017-06-11T02:20:51.422Z,75.04
2017-06-11T02:21:32.302Z,74.17
2017-06-11T02:22:13.193Z,73.6
2017-06-11T02:22:54.092Z,73.11
2017-06-11T02:23:34.968Z,73.21
2017-06-11T02:24:15.858Z,72.92
2017-06-11T02:24:56.765Z,75.04
2017-06-11T02:25:37.634Z,74.75
2017-06-11T02:26:18.587Z,73.88
2017-06-11T02:26:59.463Z,73.98
2017-06-11T02:27:40.351Z,73.6
2017-06-11T02:28:21.240Z,73.98
2017-06-11T02:29:02.134Z,74.17
2017-06-11T02:29:43.016Z,73.98
2017-06-11T02:30:23.930Z,74.85
2017-06-11T02:31:04.803Z,74.55
2017-06-11T02:31:45.698Z,74.27
2017-06-11T02:32:26.612Z,74.27
2017-06-11T02:33:07.483Z,75.42
2017-06-11T02:33:48.357Z,75.13
2017-06-11T02:34:29.270Z,75.32
2017-06-11T02:35:10.156Z,75.13
2017-06-11T02:35:51.041Z,74.94
2017-06-11T02:36:31.952Z,75.13
2017-06-11T02:37:12.834Z,75.23
2017-06-11T02:37:53.732Z,75.04
2017-06-11T02:38:34.642Z,75.29
2017-06-11T02:39:15.507Z,75.13
2017-06-11T02:39:56.408Z,75.04
2017-06-11T02:40:37.287Z,74.55
2017-06-11T02:41:18.181Z,75.13
2017-06-11T02:41:59.061Z,75.23
2017-06-11T02:42:39.943Z,75.13
2017-06-11T02:43:20.850Z,75.23
2017-06-11T02:44:01.729Z,74.85
2017-06-11T02:44:42.626Z,74.37
2017-06-11T02:45:23.548Z,74.55
2017-06-11T02:46:04.439Z,73.98
2017-06-11T02:46:45.340Z,74.65
2017-06-11T02:47:26.225Z,74.75
2017-06-11T02:48:07.120Z,75.04
2017-06-11T02:48:48.023Z,75.23
2017-06-11T02:49:28.915Z,75.32
2017-06-11T02:50:09.809Z,74.9
2017-06-11T02:50:50.707Z,75.29
2017-06-11T02:51:31.594Z,75.71
2017-06-11T02:52:12.501Z,75.48
2017-06-11T02:52:53.393Z,75.57
2017-06-11T02:53:34.303Z,76.15
2017-06-11T02:54:15.198Z,75.77
2017-06-11T02:54:56.088Z,75.67
2017-06-11T02:55:36.983Z,75.96
2017-06-11T02:56:17.879Z,76.15
2017-06-11T02:56:58.765Z,76.06
2017-06-11T02:57:39.670Z,76.54
2017-06-11T02:58:20.555Z,76.73
2017-06-11T02:59:01.445Z,76.34
2017-06-11T02:59:42.333Z,76.44
2017-06-11T03:00:23.230Z,76.54
2017-06-11T03:01:04.117Z,76.34
2017-06-11T03:01:45.022Z,76.73
2017-06-11T03:02:25.915Z,76.82
2017-06-11T03:03:06.794Z,76.44
2017-06-11T03:03:47.700Z,76.64
2017-06-11T03:04:28.574Z,76.44
2017-06-11T03:05:09.462Z,76.92
2017-06-11T03:05:50.360Z,76.92
2017-06-11T03:06:31.255Z,76.44
2017-06-11T03:07:12.139Z,76.44
2017-06-11T03:07:53.038Z,76.15
2017-06-11T03:08:33.936Z,76.34
2017-06-11T03:09:14.820Z,75.77
2017-06-11T03:09:55.723Z,75.67
2017-06-11T03:10:36.607Z,76.06
2017-06-11T03:11:17.490Z,75.57
2017-06-11T03:11:58.375Z,75.87
2017-06-11T03:12:39.277Z,75.77
2017-06-11T03:13:20.152Z,76.06
2017-06-11T03:14:01.028Z,76.25
2017-06-11T03:14:41.930Z,76.73
2017-06-11T03:15:22.824Z,76.92
2017-06-11T03:16:03.700Z,76.25
2017-06-11T03:16:44.597Z,76.34
2017-06-11T03:17:25.494Z,76.25
2017-06-11T03:18:06.356Z,75.67
2017-06-11T03:18:47.291Z,75.71
2017-06-11T03:19:28.177Z,76.19
2017-06-11T03:20:09.048Z,76.19
2017-06-11T03:20:49.944Z,75.9
2017-06-11T03:21:30.850Z,75.81
2017-06-11T03:22:11.736Z,75.23
2017-06-11T03:22:52.641Z,76
2017-06-11T03:23:33.524Z,76.19
2017-06-11T03:24:14.410Z,75.81
2017-06-11T03:24:55.313Z,75.23
2017-06-11T03:25:36.226Z,74.65
2017-06-11T03:26:17.117Z,75.04
2017-06-11T03:26:58.017Z,74.94
2017-06-11T03:27:38.904Z,74.94
2017-06-11T03:28:19.791Z,75.04
2017-06-11T03:29:00.690Z,74.75
2017-06-11T03:29:41.575Z,74.94
2017-06-11T03:30:22.467Z,74.75
2017-06-11T03:31:03.369Z,74.71
2017-06-11T03:31:44.261Z,74.85
2017-06-11T03:32:25.150Z,74.65
2017-06-11T03:33:06.049Z,74.75
2017-06-11T03:33:46.961Z,75.23
2017-06-11T03:34:27.855Z,74.85
2017-06-11T03:35:08.749Z,74.75
2017-06-11T03:35:49.652Z,74.65
2017-06-11T03:36:30.541Z,74.17
2017-06-11T03:37:11.436Z,74.55
2017-06-11T03:37:52.343Z,74.55
2017-06-11T03:38:33.228Z,74.75
2017-06-11T03:39:14.119Z,74.08
2017-06-11T03:39:55.025Z,74.65
2017-06-11T03:40:35.912Z,74.37
2017-06-11T03:41:16.811Z,74.08
2017-06-11T03:41:57.713Z,73.6
2017-06-11T03:42:38.625Z,73.5
2017-06-11T03:43:19.515Z,73.6
2017-06-11T03:44:00.408Z,73.5
2017-06-11T03:44:41.314Z,73.6
2017-06-11T03:45:22.197Z,72.73
2017-06-11T03:46:03.087Z,72.54
2017-06-11T03:46:43.983Z,73.21
2017-06-11T03:47:24.875Z,73.21
2017-06-11T03:48:05.764Z,73.11
2017-06-11T03:48:46.660Z,73.11
2017-06-11T03:49:27.549Z,73.41
2017-06-11T03:50:08.453Z,72.73
2017-06-11T03:50:49.343Z,72.34
2017-06-11T03:51:30.226Z,72.54
2017-06-11T03:52:11.113Z,72.73
2017-06-11T03:52:51.998Z,72.73
2017-06-11T03:53:32.898Z,72.73
2017-06-11T03:54:13.781Z,73.41
2017-06-11T03:54:54.680Z,73.11
2017-06-11T03:55:35.611Z,72.73
2017-06-11T03:56:16.494Z,72.83
2017-06-11T03:56:57.394Z,72.92
2017-06-11T03:57:38.293Z,73.02
2017-06-11T03:58:19.185Z,72.34
2017-06-11T03:59:00.074Z,73.21
2017-06-11T03:59:40.976Z,73.31
2017-06-11T04:00:21.877Z,72.64
2017-06-11T04:01:02.776Z,73.11
2017-06-11T04:01:43.666Z,72.83
2017-06-11T04:02:24.563Z,72.64
2017-06-11T04:03:05.445Z,72.64
2017-06-11T04:03:46.336Z,73.79
2017-06-11T04:04:27.252Z,73.88
2017-06-11T04:05:08.151Z,73.31
2017-06-11T04:05:49.043Z,73.31
2017-06-11T04:06:29.929Z,73.21
2017-06-11T04:07:10.825Z,73.11
2017-06-11T04:07:51.718Z,73.21
2017-06-11T04:08:32.615Z,73.21
2017-06-11T04:09:13.501Z,72.83
2017-06-11T04:09:54.389Z,72.73
2017-06-11T04:10:35.282Z,73.11
2017-06-11T04:11:16.180Z,73.31
2017-06-11T04:11:57.066Z,73.69
2017-06-11T04:12:37.966Z,73.6
2017-06-11T04:13:18.856Z,73.6
2017-06-11T04:13:59.746Z,73.6
2017-06-11T04:14:40.629Z,73.02
2017-06-11T04:15:21.518Z,73.5
2017-06-11T04:16:02.452Z,74.08
2017-06-11T04:16:43.346Z,74.08
2017-06-11T04:17:24.247Z,74.37
2017-06-11T04:18:05.138Z,73.98
2017-06-11T04:18:46.025Z,74.17
2017-06-11T04:19:26.916Z,74.27
2017-06-11T04:20:07.802Z,73.6
2017-06-11T04:20:48.723Z,73.88
2017-06-11T04:21:29.593Z,73.79
2017-06-11T04:22:10.502Z,74.27
2017-06-11T04:22:51.378Z,74.17
2017-06-11T04:23:32.273Z,73.98
2017-06-11T04:24:13.161Z,74.46
2017-06-11T04:24:54.068Z,74.55
2017-06-11T04:25:34.957Z,75.9
2017-06-11T04:26:15.851Z,75.62
2017-06-11T04:26:56.742Z,74.85
2017-06-11T04:27:37.639Z,74.75
2017-06-11T04:28:18.542Z,74.85
2017-06-11T04:28:59.434Z,75.13
2017-06-11T04:29:40.322Z,74.65
2017-06-11T04:30:21.221Z,74.85
2017-06-11T04:31:02.120Z,75.71
2017-06-11T04:31:43.017Z,75.62
2017-06-11T04:32:23.913Z,75.71
2017-06-11T04:33:04.802Z,76.09
2017-06-11T04:33:45.689Z,75.9
2017-06-11T04:34:26.580Z,75.9
2017-06-11T04:35:07.467Z,75.52
2017-06-11T04:35:48.355Z,75.42
2017-06-11T04:36:29.252Z,75.42
2017-06-11T04:37:10.143Z,75.71
2017-06-11T04:37:51.033Z,75.71
2017-06-11T04:38:31.940Z,75.81
2017-06-11T04:39:12.821Z,75.81
2017-06-11T04:39:53.707Z,75.52
2017-06-11T04:40:34.595Z,75.71
2017-06-11T04:41:15.500Z,76.29
2017-06-11T04:41:56.403Z,75.52
2017-06-11T04:42:37.296Z,74.94
2017-06-11T04:43:18.199Z,75.23
2017-06-11T04:43:59.095Z,76.57
2017-06-11T04:44:39.992Z,77.59
2017-06-11T04:45:20.877Z,77.88
2017-06-11T04:46:01.772Z,77.59
2017-06-11T04:46:42.668Z,76.44
2017-06-11T04:47:23.539Z,76.25
2017-06-11T04:48:04.451Z,76.39
2017-06-11T04:48:45.348Z,76.19
2017-06-11T04:49:26.231Z,75.71
2017-06-11T04:50:07.127Z,75.13
2017-06-11T04:50:48.025Z,74.75
2017-06-11T04:51:28.928Z,74.94
2017-06-11T04:52:09.821Z,74.65
2017-06-11T04:52:50.726Z,74.55
2017-06-11T04:53:31.625Z,74.94
2017-06-11T04:54:12.509Z,75.04
2017-06-11T04:54:53.399Z,74.65
2017-06-11T04:55:34.295Z,75.04
2017-06-11T04:56:15.200Z,74.75
2017-06-11T04:56:56.095Z,73.98
2017-06-11T04:57:36.986Z,74.17
2017-06-11T04:58:17.881Z,73.79
2017-06-11T04:58:58.781Z,73.88
2017-06-11T04:59:39.713Z,73.6
2017-06-11T05:00:20.629Z,74.08
2017-06-11T05:01:48.712Z,73.79
2017-06-11T05:02:29.598Z,73.69
2017-06-11T05:03:10.496Z,73.6
2017-06-11T05:03:51.385Z,73.6
2017-06-11T05:04:32.281Z,73.79
2017-06-11T05:05:13.182Z,73.41
2017-06-11T05:05:54.105Z,73.88
2017-06-11T05:06:34.992Z,73.88
2017-06-11T05:07:15.876Z,73.31
2017-06-11T05:07:56.762Z,73.11
2017-06-11T05:08:37.652Z,72.34
2017-06-11T05:09:18.538Z,72.83
2017-06-11T05:09:59.433Z,72.06
2017-06-11T05:10:40.340Z,72.06
2017-06-11T05:11:21.216Z,71.87
2017-06-11T05:12:02.111Z,72.64
2017-06-11T05:12:43.002Z,72.64
2017-06-11T05:13:23.891Z,72.64
2017-06-11T05:14:04.784Z,72.34
2017-06-11T05:14:45.678Z,72.06
2017-06-11T05:15:26.560Z,72.67
2017-06-11T05:16:07.460Z,72.83
2017-06-11T05:16:48.347Z,72.29
2017-06-11T05:17:29.232Z,72.86
2017-06-11T05:18:10.116Z,72.58
2017-06-11T05:18:51.028Z,72.67
2017-06-11T05:19:31.921Z,72.67
2017-06-11T05:20:12.794Z,71.81
2017-06-11T05:20:53.679Z,72
2017-06-11T05:21:34.589Z,72
2017-06-11T05:22:15.481Z,71.71
2017-06-11T05:22:56.385Z,71.33
2017-06-11T05:23:37.267Z,70.65
2017-06-11T05:24:18.147Z,70.94
2017-06-11T05:24:59.033Z,70.56
2017-06-11T05:25:39.939Z,70.27
2017-06-11T05:26:20.861Z,70.3
2017-06-11T05:27:01.731Z,69.63
2017-06-11T05:27:42.625Z,69.82
2017-06-11T05:28:23.524Z,69.34
2017-06-11T05:29:04.441Z,69.34
2017-06-11T05:29:45.314Z,69.15
2017-06-11T05:30:26.194Z,69.06
2017-06-11T05:31:07.100Z,68.76
2017-06-11T05:31:47.990Z,68.57
2017-06-11T05:32:28.897Z,68.96
2017-06-11T05:33:09.789Z,68.57
2017-06-11T05:33:50.672Z,68.48
2017-06-11T05:34:31.560Z,68.76
2017-06-11T05:35:12.465Z,68.19
2017-06-11T05:35:53.341Z,68.38
2017-06-11T05:36:34.236Z,67.8
2017-06-11T05:37:15.140Z,67.8
2017-06-11T05:37:56.042Z,67.71
2017-06-11T05:38:36.932Z,67.61
2017-06-11T05:39:17.843Z,67.65
2017-06-11T05:39:58.750Z,67.74
2017-06-11T05:40:39.654Z,66.88
2017-06-11T05:41:20.543Z,67.16
2017-06-11T05:42:01.440Z,66.97
2017-06-11T05:42:42.325Z,67.45
2017-06-11T05:43:24.929Z,66.49
2017-06-11T05:44:05.809Z,66.97
2017-06-11T05:44:46.698Z,66.97
2017-06-11T05:45:27.589Z,66.39
2017-06-11T05:46:08.467Z,66.58
2017-06-11T05:46:49.346Z,66.39
2017-06-11T05:47:30.250Z,66.1
2017-06-11T05:48:11.142Z,66.04
2017-06-11T05:48:52.017Z,65.24
2017-06-11T05:49:32.921Z,65.66
2017-06-11T05:50:13.808Z,65.17
2017-06-11T05:50:54.702Z,65.17
2017-06-11T05:51:35.607Z,65.56
2017-06-11T05:52:16.514Z,65.27
2017-06-11T05:52:57.408Z,64.82
2017-06-11T05:53:38.293Z,65.08
2017-06-11T05:54:19.186Z,64.92
2017-06-11T05:55:00.074Z,63.85
2017-06-11T05:55:40.974Z,63.57
2017-06-11T05:56:21.858Z,63.18
2017-06-11T05:57:02.755Z,62.9
2017-06-11T05:57:43.639Z,62.7
2017-06-11T05:58:24.535Z,63.57
2017-06-11T05:59:05.429Z,62.93
2017-06-11T05:59:46.333Z,62.45
2017-06-11T06:00:27.225Z,61.77
2017-06-11T06:01:08.117Z,61.77
2017-06-11T06:01:49.000Z,61.19
2017-06-11T06:02:29.901Z,60.26
2017-06-11T06:03:10.801Z,60.26
2017-06-11T06:03:51.689Z,59.58
2017-06-11T06:04:32.577Z,58.81
2017-06-11T06:05:13.479Z,59.61
2017-06-11T06:05:54.370Z,58.65
2017-06-11T06:06:35.271Z,59.25
2017-06-11T06:07:16.163Z,59
2017-06-11T06:07:57.056Z,56.13
2017-06-11T06:08:37.951Z,53.71
2017-06-11T06:09:18.847Z,53.16
2017-06-11T06:09:59.738Z,52.51
2017-06-11T06:10:40.634Z,51.44
2017-06-11T06:11:21.516Z,51.76
2017-06-11T06:12:02.410Z,50.7
2017-06-11T06:12:43.300Z,49.65
2017-06-11T06:13:24.201Z,48.81
2017-06-11T06:14:05.100Z,48.64
2017-06-11T06:14:46.003Z,48.08
2017-06-11T06:15:26.903Z,46.43
2017-06-11T06:16:07.797Z,46.16
2017-06-11T06:16:48.687Z,44.71
2017-06-11T06:17:29.578Z,45
2017-06-11T06:18:10.469Z,44.9
2017-06-11T06:18:51.363Z,45
2017-06-11T06:19:32.258Z,44.95
2017-06-11T06:20:13.158Z,44.68
2017-06-11T06:20:54.039Z,42.66
2017-06-11T06:21:34.943Z,42.56
2017-06-11T06:22:15.836Z,41.71
2017-06-11T06:22:56.729Z,41.24
2017-06-11T06:23:37.628Z,42.29
2017-06-11T06:24:18.532Z,42.1
2017-06-11T06:24:59.434Z,39.59
2017-06-11T06:25:40.350Z,38.23
2017-06-11T06:27:18.817Z,37.66
2017-06-11T06:27:59.704Z,38.05
2017-06-11T06:28:40.620Z,37.08
2017-06-11T06:29:21.535Z,36.96
2017-06-11T06:30:02.431Z,38.03
2017-06-11T06:30:43.328Z,38.42
2017-06-11T06:31:24.220Z,38.52
2017-06-11T06:32:05.114Z,38.21
2017-06-11T06:32:46.018Z,37.84
2017-06-11T06:33:26.925Z,37.74
2017-06-11T06:34:07.854Z,37.68
2017-06-11T06:34:48.725Z,37.39
2017-06-11T06:35:29.623Z,37.89
2017-06-11T06:36:10.520Z,35.94
2017-06-11T06:36:51.416Z,34.88
2017-06-11T06:37:32.318Z,34.58
2017-06-11T06:38:13.206Z,34.59
2017-06-11T06:38:54.118Z,34.01
2017-06-11T06:39:35.022Z,34.01
2017-06-11T06:40:15.912Z,33.92
2017-06-11T06:40:56.809Z,33.92
2017-06-11T06:41:37.703Z,34.11
2017-06-11T06:42:18.608Z,34.22
2017-06-11T06:42:59.516Z,33.56
2017-06-11T06:43:40.449Z,33.44
2017-06-11T06:44:21.350Z,34.59
2017-06-11T06:45:02.247Z,33.62
2017-06-11T06:45:43.164Z,33.61
2017-06-11T06:46:24.068Z,34
2017-06-11T06:47:04.983Z,33.98
2017-06-11T06:47:45.898Z,34.17
2017-06-11T06:48:26.802Z,34.86
2017-06-11T06:49:07.703Z,34.66
2017-06-11T06:49:48.599Z,34.47
2017-06-11T06:50:29.494Z,34.55
2017-06-11T06:51:10.423Z,35.8
2017-06-11T06:51:51.321Z,35.13
2017-06-11T06:52:32.213Z,34.47
2017-06-11T06:53:13.118Z,34.37
2017-06-11T06:53:54.028Z,33.88
2017-06-11T06:54:34.925Z,34.72
2017-06-11T06:55:15.835Z,34.47
2017-06-11T06:55:56.743Z,34.17
2017-06-11T06:56:37.649Z,34.08
2017-06-11T06:57:18.557Z,34.08
2017-06-11T06:57:59.479Z,34.08
2017-06-11T06:59:32.799Z,34.5
2017-06-11T07:00:13.735Z,33.83
2017-06-11T07:00:54.625Z,32.28
2017-06-11T07:01:35.516Z,31.67
2017-06-11T07:02:16.417Z,32.55
2017-06-11T07:02:57.326Z,32.34
2017-06-11T07:03:38.222Z,33.11
2017-06-11T07:04:19.121Z,33.2
2017-06-11T07:05:00.041Z,33.49
2017-06-11T07:05:40.927Z,33.39
2017-06-11T07:06:21.858Z,33.98
2017-06-11T07:07:02.748Z,34.06
2017-06-11T07:07:43.662Z,34.47
2017-06-11T07:08:24.622Z,33.88
2017-06-11T07:09:52.756Z,33.82
2017-06-11T07:10:33.665Z,32.28
2017-06-11T07:11:14.570Z,32.37
2017-06-11T07:11:55.465Z,32.67
2017-06-11T07:12:36.373Z,32.18
2017-06-11T07:13:17.281Z,32.09
2017-06-11T07:13:58.192Z,31.22
2017-06-11T07:14:39.101Z,31.04
2017-06-11T07:15:20.006Z,30.94
2017-06-11T07:16:00.922Z,30.55
2017-06-11T07:16:41.825Z,30.96
2017-06-11T07:17:22.733Z,30.27
2017-06-11T07:18:03.637Z,30.37
2017-06-11T07:18:44.550Z,30.57
2017-06-11T07:19:25.459Z,30.37
2017-06-11T07:20:06.360Z,30.66
2017-06-11T07:20:47.257Z,30.47
2017-06-11T07:21:28.166Z,30.94
2017-06-11T07:22:09.085Z,30.35
2017-06-11T07:22:50.006Z,30.63
2017-06-11T07:23:30.925Z,31.02
2017-06-11T07:24:11.826Z,31.33
2017-06-11T07:24:52.752Z,30.76
2017-06-11T07:25:33.645Z,29.79
2017-06-11T07:26:14.559Z,30.18
2017-06-11T07:26:55.458Z,29.59
2017-06-11T07:27:36.372Z,29.79
2017-06-11T07:28:17.291Z,29.88
2017-06-11T07:28:58.198Z,30.19
2017-06-11T07:29:39.111Z,30.76
2017-06-11T07:30:20.010Z,30.19
2017-06-11T07:31:00.926Z,29.88
2017-06-11T07:31:41.829Z,30.26
2017-06-11T07:32:22.743Z,30.27
2017-06-11T07:34:21.592Z,30.57
2017-06-11T07:35:02.500Z,29.5
2017-06-11T07:35:43.393Z,30.58
2017-06-11T07:36:24.297Z,29.59
2017-06-11T07:37:05.174Z,30.55
2017-06-11T07:37:46.056Z,30.47
2017-06-11T07:38:26.946Z,29.8
2017-06-11T07:39:07.849Z,29.8
2017-06-11T07:39:48.772Z,29.7
2017-06-11T07:40:29.676Z,30.48
2017-06-11T07:41:10.565Z,29.11
2017-06-11T07:41:51.476Z,29.81
2017-06-11T07:42:32.355Z,29.6
2017-06-11T07:43:13.235Z,30.19
2017-06-11T07:43:54.142Z,29.61
2017-06-11T07:44:35.035Z,29.73
2017-06-11T07:45:15.924Z,28.83
2017-06-11T07:45:56.821Z,29.22
2017-06-11T07:46:37.718Z,29.81
2017-06-11T07:47:18.611Z,29.22
2017-06-11T07:47:59.524Z,29.6
2017-06-11T07:49:32.868Z,30.57
2017-06-11T07:51:31.741Z,30.84
2017-06-11T07:52:12.675Z,31.64
2017-06-11T07:52:53.594Z,31.56
2017-06-11T07:53:34.479Z,30.09
2017-06-11T07:54:15.414Z,29.8
2017-06-11T07:54:56.300Z,30.27
2017-06-11T07:55:37.223Z,30.84
2017-06-11T07:56:18.132Z,31.23
2017-06-11T07:56:59.052Z,32.42
2017-06-11T07:57:39.965Z,31.54
2017-06-11T07:58:20.861Z,31.85
2017-06-11T07:59:01.751Z,30.79
2017-06-11T07:59:42.649Z,30.93
2017-06-11T08:00:23.568Z,31.93
2017-06-11T08:01:04.472Z,31.36
2017-06-11T08:01:45.361Z,30.59
2017-06-11T08:02:26.247Z,29.32
2017-06-11T08:03:07.164Z,29.22
2017-06-11T08:03:48.070Z,29.7
2017-06-11T08:04:28.970Z,29.6
2017-06-11T08:05:09.875Z,29.5
2017-06-11T08:05:50.771Z,29.7
2017-06-11T08:06:31.674Z,29.6
2017-06-11T08:07:12.562Z,29.79
2017-06-11T08:07:53.463Z,30.18
2017-06-11T08:08:34.358Z,30.57
2017-06-11T08:09:15.244Z,31.7
2017-06-11T08:09:56.152Z,31.04
2017-06-11T08:10:37.052Z,31.23
2017-06-11T08:11:17.943Z,31.13
2017-06-11T08:11:58.867Z,31.98
2017-06-11T08:12:39.773Z,31.99
2017-06-11T08:13:20.664Z,31.23
2017-06-11T08:14:01.549Z,31.35
2017-06-11T08:14:42.452Z,33.72
2017-06-11T08:15:23.361Z,34.01
2017-06-11T08:16:04.261Z,34.01
2017-06-11T08:16:45.162Z,33.43
2017-06-11T08:17:26.059Z,32.19
2017-06-11T08:18:06.964Z,31.22
2017-06-11T08:18:47.894Z,31.35
2017-06-11T08:19:28.791Z,31.6
2017-06-11T08:20:09.706Z,32.29
2017-06-11T08:20:50.603Z,31.62
2017-06-11T08:21:31.494Z,31.72
2017-06-11T08:22:12.395Z,32.18
2017-06-11T08:22:53.295Z,33.96
2017-06-11T08:23:34.194Z,34.64
2017-06-11T08:24:15.113Z,33.62
2017-06-11T08:24:56.027Z,31.4
2017-06-11T08:25:36.943Z,31.12
2017-06-11T08:26:17.893Z,32.63
2017-06-11T08:26:58.794Z,32.65
2017-06-11T08:27:39.695Z,31.7
2017-06-11T08:28:20.617Z,30.18
2017-06-11T08:29:01.551Z,30.48
2017-06-11T08:29:42.457Z,30.93
2017-06-11T08:30:23.354Z,30.93
2017-06-11T08:31:04.283Z,30.86
2017-06-11T08:31:45.183Z,30.55
2017-06-11T08:32:26.086Z,32.52
2017-06-11T08:33:07.004Z,32.53
2017-06-11T08:33:47.904Z,32.53
2017-06-11T08:34:28.827Z,31.98
2017-06-11T08:35:09.742Z,30.65
2017-06-11T08:35:50.656Z,29.69
2017-06-11T08:36:31.566Z,29.7
2017-06-11T08:37:12.485Z,29.03
2017-06-11T08:37:53.386Z,28.06
2017-06-11T08:38:34.290Z,27.86
2017-06-11T08:39:15.210Z,27.47
2017-06-11T08:39:56.138Z,27.37
2017-06-11T08:40:37.048Z,27.56
2017-06-11T08:41:17.957Z,27.87
2017-06-11T08:41:58.844Z,27.09
2017-06-11T08:42:39.753Z,27.28
2017-06-11T08:43:20.652Z,26.98
2017-06-11T08:44:01.554Z,27.08
2017-06-11T08:44:42.476Z,25.81
2017-06-11T08:45:23.366Z,25.81
2017-06-11T08:46:04.260Z,25.72
2017-06-11T08:46:45.162Z,26.12
2017-06-11T08:47:26.052Z,26.04
2017-06-11T08:48:06.973Z,25.74
2017-06-11T08:48:47.949Z,24.87
2017-06-11T08:49:28.875Z,24.21
2017-06-11T08:50:09.772Z,24.99
2017-06-11T08:50:50.685Z,24.42
2017-06-11T08:51:31.600Z,24.4
2017-06-11T08:52:12.523Z,23.83
2017-06-11T08:52:53.426Z,23.05
2017-06-11T08:53:34.328Z,22.94
2017-06-11T08:54:15.235Z,23.35
2017-06-11T08:54:56.149Z,23.96
2017-06-11T08:55:37.053Z,25.52
2017-06-11T08:56:17.952Z,25.02
2017-06-11T08:56:58.879Z,25.78